Time;durP1;ratioP1;P1;durP2;ratioP2;P2;SDS_P1;SDS_P2;PMS_P1;PMS_P2;Temp;Humidity;BMP_temperature;BMP_pressure;BME280_temperature;BME280_humidity;BME280_pressure;Samples;Min_cycle;Max_cycle;Signal;HPM_P1;HPM_P2
2023/10/12 00:00:41;;;;;;;4.80;2.90;;;;;;;10.36;50.38;100555.23;88342;282;136856;-68
2023/10/12 00:02:45;;;;;;;7.40;3.20;;;;;;;10.36;50.36;100561.30;88400;277;25264;-69
2023/10/12 00:04:53;;;;;;;8.10;3.80;;;;;;;10.36;50.52;100552.57;88299;284;136102;-68
2023/10/12 00:06:55;;;;;;;8.40;3.10;;;;;;;10.36;50.41;100555.37;88549;276;22553;-69
2023/10/12 00:08:57;;;;;;;5.10;3.50;;;;;;;10.33;50.70;100552.87;88293;284;135958;-67
2023/10/12 00:11:06;;;;;;;10.90;4.50;;;;;;;10.31;50.73;100552.39;88357;284;22753;-71
2023/10/12 00:13:11;;;;;;;8.00;3.10;;;;;;;10.31;50.86;100544.75;88193;284;136010;-66
2023/10/12 00:15:25;;;;;;;5.60;3.10;;;;;;;10.29;50.98;100542.98;88490;284;22534;-67
2023/10/12 00:17:27;;;;;;;6.00;3.80;;;;;;;10.29;51.19;100538.60;88321;276;135621;-70
2023/10/12 00:19:31;;;;;;;7.10;3.50;;;;;;;10.28;51.29;100527.38;88403;285;24037;-69
2023/10/12 00:21:35;;;;;;;10.40;3.60;;;;;;;10.26;51.43;100528.59;88072;283;135922;-67
2023/10/12 00:23:37;;;;;;;5.90;3.40;;;;;;;10.27;51.25;100511.66;88384;281;25334;-64
2023/10/12 00:25:47;;;;;;;7.30;3.70;;;;;;;10.27;51.50;100501.01;88289;277;135925;-66
2023/10/12 00:27:51;;;;;;;5.60;3.20;;;;;;;10.26;51.61;100498.95;88407;284;22540;-69
2023/10/12 00:29:53;;;;;;;6.60;3.30;;;;;;;10.26;51.79;100495.62;88231;285;135665;-65
2023/10/12 00:31:57;;;;;;;9.30;3.90;;;;;;;10.24;51.89;100487.98;88358;285;22778;-66
2023/10/12 00:34:02;;;;;;;7.80;3.20;;;;;;;10.23;51.94;100488.27;88277;284;136686;-65
2023/10/12 00:36:11;;;;;;;15.00;3.20;;;;;;;10.23;52.10;100484.71;88281;286;135841;-66
2023/10/12 00:38:17;;;;;;;10.70;3.20;;;;;;;10.22;52.29;100476.76;88625;277;22525;-65
2023/10/12 00:40:30;;;;;;;6.00;2.10;;;;;;;10.21;52.23;100476.32;88824;281;136182;-67
2023/10/12 00:42:35;;;;;;;6.50;2.60;;;;;;;10.19;52.69;100477.45;89228;284;22481;-67
2023/10/12 00:44:40;;;;;;;6.10;2.90;;;;;;;10.17;52.82;100475.33;88394;285;135977;-63
2023/10/12 00:46:58;;;;;;;7.60;3.50;;;;;;;10.16;52.95;100479.91;88436;285;23978;-67
2023/10/12 00:51:18;;;;;;;6.00;3.10;;;;;;;10.19;53.04;100473.76;88331;277;22535;-73
2023/10/12 00:53:22;;;;;;;10.20;3.50;;;;;;;10.19;53.22;100472.79;88205;285;135385;-67
2023/10/12 00:55:37;;;;;;;6.70;3.10;;;;;;;10.20;53.17;100476.30;88669;279;22537;-67
2023/10/12 00:57:39;;;;;;;5.70;3.40;;;;;;;10.21;53.59;100477.59;88390;276;137283;-72
2023/10/12 00:59:43;;;;;;;8.20;3.30;;;;;;;10.21;53.71;100475.12;88402;277;25191;-69
2023/10/12 01:01:45;;;;;;;7.10;2.90;;;;;;;10.22;53.66;100470.20;88498;275;137426;-67
2023/10/12 01:03:49;;;;;;;7.60;3.80;;;;;;;10.23;53.91;100461.02;88376;275;22527;-71
2023/10/12 01:06:08;;;;;;;6.20;2.90;;;;;;;10.24;53.93;100455.85;88422;279;136368;-67
2023/10/12 01:08:18;;;;;;;6.40;2.70;;;;;;;10.27;54.03;100459.11;88317;279;136463;-68
2023/10/12 01:10:28;;;;;;;4.40;2.90;;;;;;;10.29;54.16;100458.67;88456;280;22606;-63
2023/10/12 01:12:31;;;;;;;8.80;3.60;;;;;;;10.30;54.29;100459.23;88604;277;135975;-69
2023/10/12 01:14:33;;;;;;;5.00;2.90;;;;;;;10.32;54.38;100453.71;88418;281;24126;-67
2023/10/12 01:18:57;;;;;;;14.10;3.00;;;;;;;10.35;54.63;100450.54;88364;276;25245;-72
2023/10/12 01:20:58;;;;;;;7.50;4.40;;;;;;;10.37;54.60;100451.00;88562;284;136948;-76
2023/10/12 01:23:00;;;;;;;6.30;2.70;;;;;;;10.38;54.74;100447.73;88402;275;22552;-68
2023/10/12 01:25:10;;;;;;;5.70;2.90;;;;;;;10.39;54.81;100446.36;88305;283;135936;-67
2023/10/12 01:27:13;;;;;;;6.00;3.00;;;;;;;10.39;54.92;100445.39;88457;280;22624;-67
2023/10/12 01:29:22;;;;;;;5.60;2.10;;;;;;;10.40;55.06;100446.25;88241;277;135537;-69
2023/10/12 01:31:27;;;;;;;5.70;3.10;;;;;;;10.40;55.17;100445.48;88489;275;23737;-66
2023/10/12 01:33:30;;;;;;;12.90;2.90;;;;;;;10.44;55.28;100444.90;88357;275;136645;-66
2023/10/12 01:35:39;;;;;;;8.00;3.30;;;;;;;10.45;55.28;100444.00;88365;275;25083;-65
2023/10/12 01:37:48;;;;;;;6.50;2.90;;;;;;;10.46;55.36;100445.35;88384;274;136152;-69
2023/10/12 01:42:06;;;;;;;4.90;3.40;;;;;;;10.47;55.50;100444.80;88519;283;23726;-68
2023/10/12 01:44:12;;;;;;;7.60;2.90;;;;;;;10.48;55.58;100445.70;88394;282;136264;-70
2023/10/12 01:46:16;;;;;;;7.30;2.70;;;;;;;10.51;55.57;100445.91;88416;283;25169;-65
2023/10/12 01:48:22;;;;;;;5.60;2.20;;;;;;;10.55;55.47;100441.36;88374;283;137603;-64
2023/10/12 01:50:25;;;;;;;3.80;2.60;;;;;;;10.58;55.37;100442.13;88434;277;22539;-69
2023/10/12 01:52:26;;;;;;;5.30;2.30;;;;;;;10.61;55.44;100437.13;88301;275;136202;-65
2023/10/12 01:54:28;;;;;;;4.10;3.40;;;;;;;10.62;55.39;100437.66;88309;277;23758;-67
2023/10/12 01:56:31;;;;;;;7.30;2.80;;;;;;;10.62;55.53;100435.37;88269;283;138152;-68
2023/10/12 01:58:35;;;;;;;8.90;3.60;;;;;;;10.62;55.64;100436.77;88368;284;24064;-68
2023/10/12 02:00:42;;;;;;;6.00;2.70;;;;;;;10.63;55.54;100437.97;88258;279;136377;-68
2023/10/12 02:02:53;;;;;;;3.70;2.20;;;;;;;10.63;55.68;100441.10;88418;275;22530;-67
2023/10/12 02:04:56;;;;;;;8.60;3.70;;;;;;;10.62;55.83;100441.77;88260;285;137414;-68
2023/10/12 02:06:58;;;;;;;4.30;2.30;;;;;;;10.61;55.76;100439.14;88232;278;26822;-67
2023/10/12 02:09:10;;;;;;;8.00;3.80;;;;;;;10.62;55.76;100435.70;88347;283;137521;-68
2023/10/12 02:13:21;;;;;;;3.60;2.60;;;;;;;10.58;56.04;100424.64;88306;277;136249;-70
2023/10/12 02:15:26;;;;;;;6.80;3.20;;;;;;;10.61;56.04;100417.45;88464;283;24018;-68
2023/10/12 02:17:35;;;;;;;6.60;2.70;;;;;;;10.59;56.05;100424.85;88272;275;136488;-70
2023/10/12 02:19:49;;;;;;;11.20;3.00;;;;;;;10.57;56.24;100415.52;88393;276;24118;-65
2023/10/12 02:21:59;;;;;;;9.10;3.40;;;;;;;10.57;56.27;100416.95;88322;275;136241;-66
2023/10/12 02:26:29;;;;;;;4.20;2.40;;;;;;;10.56;56.30;100412.27;88475;282;22577;-68
2023/10/12 02:28:37;;;;;;;10.50;3.00;;;;;;;10.48;56.36;100397.44;88433;282;137594;-68
2023/10/12 02:30:40;;;;;;;9.80;2.60;;;;;;;10.54;56.54;100410.80;88402;282;24024;-68
2023/10/12 02:33:00;;;;;;;6.90;3.00;;;;;;;10.53;56.58;100409.82;88361;282;136061;-66
2023/10/12 02:35:11;;;;;;;7.60;3.20;;;;;;;10.52;56.48;100407.59;88542;282;22534;-69
2023/10/12 02:39:21;;;;;;;6.30;2.50;;;;;;;10.48;56.72;100405.04;88565;282;22619;-63
2023/10/12 02:41:24;;;;;;;10.50;2.50;;;;;;;10.47;56.79;100403.78;88491;280;136392;-64
2023/10/12 02:43:28;;;;;;;4.20;3.00;;;;;;;10.45;56.80;100402.41;88508;281;25079;-69
2023/10/12 02:45:33;;;;;;;6.00;3.60;;;;;;;10.42;56.93;100399.21;88417;281;136124;-65
2023/10/12 02:47:40;;;;;;;5.10;3.00;;;;;;;10.41;57.22;100399.73;88672;279;22539;-67
2023/10/12 02:49:43;;;;;;;4.70;3.30;;;;;;;10.38;57.37;100393.72;88360;280;136111;-71
2023/10/12 02:51:45;;;;;;;5.60;3.20;;;;;;;10.36;57.31;100396.73;88355;276;22622;-66
2023/10/12 02:53:47;;;;;;;8.20;3.00;;;;;;;10.35;57.43;100401.14;88480;281;136736;-67
2023/10/12 02:55:51;;;;;;;8.20;3.10;;;;;;;10.32;57.51;100399.14;88574;274;22527;-67
2023/10/12 02:57:56;;;;;;;4.50;2.60;;;;;;;10.31;57.65;100400.92;88255;280;136047;-66
2023/10/12 03:00:14;;;;;;;7.70;2.90;;;;;;;10.29;57.83;100404.48;88554;281;22549;-67
2023/10/12 03:02:22;;;;;;;4.40;3.10;;;;;;;10.26;57.94;100403.60;88660;278;22626;-66
2023/10/12 03:04:24;;;;;;;8.70;3.10;;;;;;;10.23;58.13;100405.52;88518;275;136428;-68
2023/10/12 03:06:32;;;;;;;8.10;2.80;;;;;;;10.22;58.16;100405.52;88477;283;22832;-69
2023/10/12 03:11:31;;;;;;;4.10;2.60;;;;;;;10.17;58.43;100397.23;88500;282;22543;-67
2023/10/12 03:13:36;;;;;;;8.50;3.80;;;;;;;10.14;58.66;100399.20;88270;279;137863;-68
2023/10/12 03:15:41;;;;;;;7.60;3.20;;;;;;;10.13;58.77;100397.58;88579;276;24102;-68
2023/10/12 03:17:54;;;;;;;5.90;3.40;;;;;;;10.11;58.96;100393.33;88253;279;136393;-71
2023/10/12 03:19:56;;;;;;;4.40;3.00;;;;;;;10.08;59.17;100397.26;88519;279;25105;-65
2023/10/12 03:22:03;;;;;;;8.30;3.00;;;;;;;10.06;59.33;100394.69;88636;276;136151;-66
2023/10/12 03:24:06;;;;;;;9.30;3.40;;;;;;;10.03;59.64;100388.09;88597;274;136651;-68
2023/10/12 03:28:44;;;;;;;6.10;2.70;;;;;;;9.98;59.94;100378.14;88419;279;137337;-68
2023/10/12 03:30:53;;;;;;;7.40;3.70;;;;;;;9.96;60.06;100374.52;88684;272;25112;-69
2023/10/12 03:32:56;;;;;;;7.20;3.00;;;;;;;9.96;60.22;100375.13;88740;272;136259;-67
2023/10/12 03:34:59;;;;;;;6.00;2.70;;;;;;;9.96;60.27;100376.85;88704;278;22534;-69
2023/10/12 03:37:04;;;;;;;11.60;4.20;;;;;;;9.95;60.27;100374.63;88821;278;136095;-69
2023/10/12 03:43:28;;;;;;;9.30;2.40;;;;;;;9.92;60.69;100369.84;88787;278;25080;-69
2023/10/12 03:45:34;;;;;;;6.00;3.60;;;;;;;9.89;60.87;100362.52;88963;278;136923;-69
2023/10/12 03:47:55;;;;;;;8.50;4.50;;;;;;;9.88;61.00;100366.02;88725;274;26285;-64
2023/10/12 03:49:57;;;;;;;7.10;3.10;;;;;;;9.86;61.13;100367.13;88632;272;136626;-68
2023/10/12 03:52:02;;;;;;;8.20;5.00;;;;;;;9.84;61.39;100362.68;88562;273;25116;-69
2023/10/12 03:54:12;;;;;;;12.00;3.20;;;;;;;9.82;61.66;100367.35;88464;273;25115;-69
2023/10/12 03:56:15;;;;;;;6.00;3.00;;;;;;;9.80;61.83;100363.43;88706;279;136408;-67
2023/10/12 03:58:23;;;;;;;9.10;3.00;;;;;;;9.79;62.12;100362.92;88684;272;22879;-65
2023/10/12 04:00:35;;;;;;;7.00;2.90;;;;;;;9.78;62.17;100366.56;88561;278;136138;-68
2023/10/12 04:05:00;;;;;;;6.30;3.20;;;;;;;9.77;62.51;100366.64;88423;276;136123;-67
2023/10/12 04:09:14;;;;;;;4.90;3.20;;;;;;;9.74;62.82;100362.36;88426;274;135945;-68
2023/10/12 04:18:12;;;;;;;6.70;2.80;;;;;;;9.75;63.22;100362.25;88424;271;25149;-68
2023/10/12 04:20:17;;;;;;;11.00;3.40;;;;;;;9.75;63.28;100356.73;88664;271;136456;-70
2023/10/12 04:22:25;;;;;;;6.00;3.70;;;;;;;9.76;63.32;100366.05;88865;274;25339;-63
2023/10/12 04:24:27;;;;;;;10.30;3.60;;;;;;;9.78;63.40;100364.84;88473;279;136920;-68
2023/10/12 04:28:35;;;;;;;9.40;4.20;;;;;;;9.81;63.65;100368.80;88394;272;136008;-66
2023/10/12 04:35:21;;;;;;;3.80;3.10;;;;;;;9.97;63.61;100368.21;88645;278;24970;-71
2023/10/12 04:37:25;;;;;;;7.20;3.10;;;;;;;10.03;63.39;100369.81;88543;280;136060;-66
2023/10/12 04:39:27;;;;;;;;;;;;;;;10.05;63.42;100367.73;88615;272;25483;-69
2023/10/12 04:41:39;;;;;;;8.60;3.50;;;;;;;10.06;63.48;100363.52;88321;278;123819;-68
2023/10/12 04:43:52;;;;;;;10.40;3.70;;;;;;;10.06;63.55;100354.88;88487;272;24848;-65
2023/10/12 04:48:18;;;;;;;7.50;3.60;;;;;;;10.27;63.22;100359.59;88333;276;136386;-68
2023/10/12 04:50:43;;;;;;;10.70;3.90;;;;;;;10.51;62.44;100353.20;88755;279;22826;-66
2023/10/12 04:53:07;;;;;;;12.70;3.60;;;;;;;10.78;61.52;100352.02;88542;272;137811;-68
2023/10/12 04:57:26;;;;;;;6.40;3.50;;;;;;;11.00;60.87;100351.58;88398;272;136595;-68
2023/10/12 04:59:42;;;;;;;7.00;3.90;;;;;;;11.08;60.64;100351.73;88558;276;25080;-69
2023/10/12 05:04:09;;;;;;;7.10;3.20;;;;;;;11.37;59.73;100363.12;88537;279;139104;-67
2023/10/12 05:06:14;;;;;;;10.00;4.50;;;;;;;11.59;59.13;100358.89;88699;279;22524;-70
2023/10/12 05:08:16;;;;;;;12.70;4.20;;;;;;;11.82;58.42;100353.66;89550;279;136457;-69
2023/10/12 05:10:26;;;;;;;9.30;4.20;;;;;;;12.02;57.97;100353.43;88761;279;24057;-69
2023/10/12 05:12:28;;;;;;;5.50;4.00;;;;;;;12.20;57.01;100364.26;88556;271;137720;-71
2023/10/12 05:14:31;;;;;;;15.00;3.30;;;;;;;12.36;56.46;100353.80;88692;279;24046;-67
2023/10/12 05:16:32;;;;;;;7.70;3.40;;;;;;;12.46;56.01;100352.16;88592;275;136198;-71
2023/10/12 05:18:34;;;;;;;6.60;3.00;;;;;;;12.46;55.86;100357.87;88706;272;22612;-69
2023/10/12 05:20:43;;;;;;;6.40;3.20;;;;;;;12.39;56.16;100348.96;88601;276;136514;-70
2023/10/12 05:22:45;;;;;;;10.20;3.40;;;;;;;12.37;56.39;100349.05;88713;272;22937;-69
2023/10/12 05:24:47;;;;;;;8.30;3.50;;;;;;;12.37;56.60;100346.98;88711;272;136441;-70
2023/10/12 05:27:08;;;;;;;7.70;3.70;;;;;;;12.41;56.56;100349.74;88781;272;22518;-69
2023/10/12 05:31:28;;;;;;;9.60;3.80;;;;;;;12.65;56.07;100349.70;88842;278;24150;-66
2023/10/12 05:35:52;;;;;;;7.60;4.00;;;;;;;12.80;55.68;100349.16;88680;279;22530;-65
2023/10/12 05:37:56;;;;;;;9.00;3.20;;;;;;;12.86;55.67;100352.30;88563;278;135912;-70
2023/10/12 05:39:59;;;;;;;5.40;3.40;;;;;;;12.98;55.46;100360.27;88836;271;25153;-66
2023/10/12 05:42:05;;;;;;;10.60;4.00;;;;;;;13.08;55.31;100358.52;88687;276;138111;-69
2023/10/12 05:44:14;;;;;;;7.80;3.10;;;;;;;13.15;55.38;100368.44;88590;272;136716;-72
2023/10/12 05:46:16;;;;;;;6.00;3.40;;;;;;;13.18;55.41;100365.76;88718;272;26600;-66
2023/10/12 05:48:19;;;;;;;7.90;3.50;;;;;;;13.21;55.36;100369.06;88809;279;137566;-67
2023/10/12 05:50:28;;;;;;;6.30;3.70;;;;;;;13.26;55.26;100371.95;88567;279;25256;-64
2023/10/12 05:52:34;;;;;;;8.00;3.60;;;;;;;13.25;55.32;100370.34;88544;278;136524;-66
2023/10/12 05:54:40;;;;;;;8.90;3.90;;;;;;;13.13;55.52;100363.41;88844;279;22550;-68
2023/10/12 05:56:43;;;;;;;;;;;;;;;13.03;55.99;100353.57;88539;272;136171;-62
2023/10/12 05:58:46;;;;;;;6.90;3.50;;;;;;;13.03;56.17;100354.06;88677;271;22534;-66
2023/10/12 06:00:48;;;;;;;10.80;4.70;;;;;;;13.09;56.39;100356.00;88556;272;136135;-77
2023/10/12 06:02:50;;;;;;;8.80;3.60;;;;;;;13.14;56.25;100356.75;88588;279;22545;-69
2023/10/12 06:04:52;;;;;;;7.10;3.80;;;;;;;13.19;56.38;100362.97;88547;278;137170;-67
2023/10/12 06:06:55;;;;;;;14.60;5.20;;;;;;;13.18;56.57;100367.13;88664;279;22538;-71
2023/10/12 06:08:57;;;;;;;12.70;3.90;;;;;;;13.12;56.90;100360.49;88499;278;136444;-67
2023/10/12 06:10:59;;;;;;;11.70;4.40;;;;;;;12.97;57.52;100346.89;88602;272;24011;-69
2023/10/12 06:13:05;;;;;;;5.30;3.20;;;;;;;12.98;57.74;100353.39;88570;279;136276;-65
2023/10/12 06:15:10;;;;;;;8.00;3.60;;;;;;;12.91;58.07;100358.80;88585;279;22536;-65
2023/10/12 06:17:27;;;;;;;8.70;4.40;;;;;;;12.82;58.79;100355.79;88592;279;137507;-67
2023/10/12 06:19:36;;;;;;;9.70;3.90;;;;;;;12.79;59.10;100362.16;88684;279;22617;-64
2023/10/12 06:21:42;;;;;;;12.60;4.20;;;;;;;12.77;59.44;100362.56;88641;271;136004;-67
2023/10/12 06:23:48;;;;;;;11.80;4.60;;;;;;;12.78;59.37;100366.48;88821;271;25101;-68
2023/10/12 06:25:51;;;;;;;9.80;3.90;;;;;;;12.80;59.92;100365.79;88672;279;136419;-66
2023/10/12 06:28:14;;;;;;;11.30;4.20;;;;;;;12.83;60.33;100365.17;88426;279;136705;-67
2023/10/12 06:30:23;;;;;;;8.80;3.40;;;;;;;12.80;60.28;100355.02;88523;279;22606;-67
2023/10/12 06:32:31;;;;;;;8.00;3.60;;;;;;;12.92;60.67;100355.85;88527;278;137548;-67
2023/10/12 06:34:35;;;;;;;10.80;4.10;;;;;;;12.94;60.68;100356.06;88640;279;22549;-66
2023/10/12 06:36:38;;;;;;;9.50;4.60;;;;;;;12.95;60.78;100361.41;88469;279;136378;-67
2023/10/12 06:38:47;;;;;;;6.50;5.00;;;;;;;12.98;60.63;100364.96;88633;276;25090;-66
2023/10/12 06:41:00;;;;;;;9.60;5.00;;;;;;;13.03;60.88;100368.22;88566;279;136079;-71
2023/10/12 06:45:16;;;;;;;7.90;3.90;;;;;;;13.16;60.32;100358.02;88330;276;136685;-66
2023/10/12 06:47:27;;;;;;;6.30;3.40;;;;;;;13.20;59.85;100360.73;88711;279;22524;-67
2023/10/12 06:49:32;;;;;;;7.50;3.90;;;;;;;13.28;60.10;100364.98;88577;272;135997;-62
2023/10/12 06:51:34;;;;;;;6.90;3.80;;;;;;;13.32;60.05;100366.37;88760;276;22533;-72
2023/10/12 06:53:37;;;;;;;8.20;3.40;;;;;;;13.38;60.28;100366.27;88577;271;140366;-71
2023/10/12 06:55:39;;;;;;;7.80;3.50;;;;;;;13.47;60.16;100362.80;91066;272;25230;-68
2023/10/12 06:57:44;;;;;;;9.90;3.50;;;;;;;13.55;60.22;100354.80;88547;271;136019;-66
2023/10/12 06:59:59;;;;;;;;;;;;;;;13.63;60.13;100350.67;88677;271;25122;-67
2023/10/12 07:02:10;;;;;;;7.20;3.70;;;;;;;13.69;60.26;100353.75;88570;276;122487;-68
2023/10/12 07:04:13;;;;;;;7.20;3.60;;;;;;;13.76;60.61;100358.83;88535;271;136941;-70
2023/10/12 07:06:16;;;;;;;8.30;2.80;;;;;;;13.85;60.17;100358.13;89714;272;24054;-69
2023/10/12 07:08:18;;;;;;;6.10;3.60;;;;;;;13.96;60.33;100356.55;88643;279;136463;-68
2023/10/12 07:10:29;;;;;;;9.50;3.80;;;;;;;14.06;60.10;100357.14;88642;279;25086;-69
2023/10/12 07:12:33;;;;;;;10.50;3.00;;;;;;;14.17;60.04;100353.02;88616;276;136052;-72
2023/10/12 07:14:38;;;;;;;9.00;4.40;;;;;;;14.27;60.16;100350.02;88769;278;22561;-66
2023/10/12 07:16:52;;;;;;;11.30;6.70;;;;;;;14.35;60.19;100346.35;88571;276;137137;-60
2023/10/12 07:18:54;;;;;;;6.90;3.30;;;;;;;14.46;60.34;100343.04;88475;273;25080;-65
2023/10/12 07:21:21;;;;;;;6.30;3.00;;;;;;;14.58;60.11;100342.27;88508;279;137832;-66
2023/10/12 07:23:34;;;;;;;10.70;3.80;;;;;;;14.67;59.86;100336.33;88988;271;22534;-62
2023/10/12 07:25:36;;;;;;;9.00;4.50;;;;;;;14.76;59.69;100332.11;88620;279;136440;-66
2023/10/12 07:27:49;;;;;;;8.80;3.00;;;;;;;14.84;59.68;100330.23;88693;276;22558;-62
2023/10/12 07:30:10;;;;;;;8.20;3.40;;;;;;;14.89;59.40;100324.98;88721;270;138074;-63
2023/10/12 07:34:36;;;;;;;6.30;3.40;;;;;;;15.05;59.44;100323.10;88606;279;23508;-63
2023/10/12 07:38:55;;;;;;;6.40;3.00;;;;;;;15.19;59.42;100317.16;88610;279;25191;-63
2023/10/12 07:41:00;;;;;;;;;;;;;;;15.31;59.33;100310.58;88746;272;136118;-62
2023/10/12 07:43:08;;;;;;;13.20;7.10;;;;;;;15.44;59.17;100302.41;88669;279;22522;-63
2023/10/12 07:45:14;;;;;;;9.80;4.30;;;;;;;15.54;58.76;100300.36;88637;279;136594;-64
2023/10/12 07:47:19;;;;;;;7.20;4.30;;;;;;;15.63;58.75;100302.35;88671;278;22624;-63
2023/10/12 07:49:27;;;;;;;7.70;3.50;;;;;;;15.71;58.68;100304.95;90080;278;137235;-63
2023/10/12 07:51:53;;;;;;;10.60;3.70;;;;;;;15.80;58.47;100306.34;88654;278;25539;-63
2023/10/12 07:54:00;;;;;;;4.70;3.30;;;;;;;15.92;58.42;100305.38;88572;276;136925;-62
2023/10/12 07:56:06;;;;;;;6.90;3.30;;;;;;;16.03;58.21;100305.04;88642;272;25233;-61
2023/10/12 07:58:12;;;;;;;5.70;2.80;;;;;;;16.13;58.08;100304.39;88652;279;22526;-63
2023/10/12 08:05:14;;;;;;;8.90;2.80;;;;;;;16.49;57.37;100287.98;88542;279;135754;-64
2023/10/12 08:07:26;;;;;;;4.60;2.90;;;;;;;16.51;57.11;100278.73;88754;276;24128;-60
2023/10/12 08:11:34;;;;;;;3.30;2.80;;;;;;;16.71;57.21;100282.52;88776;276;22597;-63
2023/10/12 08:13:47;;;;;;;8.70;3.50;;;;;;;16.80;57.11;100287.98;88683;279;137497;-63
2023/10/12 08:18:12;;;;;;;5.40;2.70;;;;;;;16.94;56.83;100286.05;88534;276;135921;-63
2023/10/12 08:20:45;;;;;;;5.40;2.90;;;;;;;16.99;57.08;100283.91;88464;276;136494;-62
2023/10/12 08:22:54;;;;;;;8.40;4.10;;;;;;;17.06;56.91;100281.38;88663;276;22560;-64
2023/10/12 08:25:04;;;;;;;7.70;3.60;;;;;;;17.10;56.78;100282.02;88320;273;135801;-62
2023/10/12 08:27:06;;;;;;;9.50;2.80;;;;;;;17.17;56.57;100278.85;88773;274;22527;-63
2023/10/12 08:31:28;;;;;;;7.70;3.50;;;;;;;17.36;56.62;100285.69;88627;271;22534;-62
2023/10/12 08:36:23;;;;;;;4.90;2.70;;;;;;;17.59;56.21;100277.48;88674;272;22589;-64
2023/10/12 08:38:16;;;;;;;7.70;3.50;;;;;;;17.68;55.64;100276.31;88660;272;25116;-62
2023/10/12 08:40:19;;;;;;;7.40;2.30;;;;;;;17.74;55.54;100274.84;88508;279;136398;-65
2023/10/12 08:44:35;;;;;;;6.60;2.80;;;;;;;17.83;55.27;100261.59;88570;279;137926;-63
2023/10/12 08:48:53;;;;;;;9.00;2.60;;;;;;;17.89;54.96;100259.80;88424;279;136307;-62
2023/10/12 08:50:58;;;;;;;8.40;3.70;;;;;;;17.94;55.01;100264.97;88649;279;26247;-64
2023/10/12 08:53:04;;;;;;;5.00;3.00;;;;;;;17.99;54.71;100256.82;88601;276;136318;-64
2023/10/12 08:55:11;;;;;;;10.00;3.50;;;;;;;18.03;54.58;100256.36;88548;272;22530;-64
2023/10/12 08:57:32;;;;;;;6.90;2.90;;;;;;;18.06;54.49;100249.58;88860;276;136367;-63
2023/10/12 08:59:38;;;;;;;10.40;3.70;;;;;;;18.13;54.39;100249.85;88796;272;26247;-65
2023/10/12 09:01:42;;;;;;;7.70;3.90;;;;;;;18.20;54.37;100251.23;88435;279;137619;-63
2023/10/12 09:03:52;;;;;;;6.70;2.90;;;;;;;18.28;54.14;100244.86;88879;279;24051;-63
2023/10/12 09:05:58;;;;;;;10.80;2.70;;;;;;;18.36;53.63;100241.87;88597;279;136410;-61
2023/10/12 09:10:36;;;;;;;7.70;3.10;;;;;;;18.45;53.15;100235.02;88701;271;22573;-60
2023/10/12 09:12:40;;;;;;;4.60;2.60;;;;;;;18.46;52.64;100235.58;88515;271;136320;-62
2023/10/12 09:14:45;;;;;;;7.70;2.40;;;;;;;18.48;52.68;100227.68;88635;278;22534;-63
2023/10/12 09:16:54;;;;;;;5.70;2.20;;;;;;;18.50;52.41;100224.20;90000;271;136043;-61
2023/10/12 09:18:59;;;;;;;5.90;2.40;;;;;;;18.52;52.56;100220.95;88719;272;22267;-63
2023/10/12 09:23:12;;;;;;;7.00;3.10;;;;;;;18.58;52.00;100212.02;88615;271;25156;-63
2023/10/12 09:25:59;;;;;;;8.90;2.30;;;;;;;18.60;51.75;100209.30;88511;271;136351;-61
2023/10/12 09:27:49;;;;;;;8.10;2.70;;;;;;;18.58;51.83;100194.64;88521;279;24049;-63
2023/10/12 09:29:57;;;;;;;3.60;2.30;;;;;;;18.70;51.97;100200.17;89838;279;138267;-62
2023/10/12 09:32:19;;;;;;;5.50;2.00;;;;;;;18.78;51.94;100199.61;88510;279;22756;-61
2023/10/12 09:36:32;;;;;;;6.90;2.80;;;;;;;19.02;51.39;100194.11;88333;279;136346;-61
2023/10/12 09:38:38;;;;;;;4.50;2.50;;;;;;;19.11;51.21;100186.53;88604;276;24015;-60
2023/10/12 09:40:42;;;;;;;10.00;4.00;;;;;;;19.20;50.87;100188.80;88543;277;136102;-62
2023/10/12 09:42:47;;;;;;;6.10;2.20;;;;;;;19.28;50.67;100184.63;88640;276;27521;-61
2023/10/12 09:45:01;;;;;;;6.30;2.60;;;;;;;19.34;50.48;100180.45;88562;272;137370;-62
2023/10/12 09:47:16;;;;;;;10.00;3.10;;;;;;;19.42;50.44;100174.19;88827;272;25121;-63
2023/10/12 09:49:22;;;;;;;5.20;3.00;;;;;;;19.51;50.39;100172.17;88558;272;137778;-60
2023/10/12 09:51:28;;;;;;;4.20;2.90;;;;;;;19.58;50.13;100167.67;88761;272;22498;-63
2023/10/12 09:53:35;;;;;;;4.10;2.30;;;;;;;19.64;50.02;100165.42;88759;278;136172;-64
2023/10/12 09:56:11;;;;;;;7.10;2.70;;;;;;;19.70;49.83;100154.45;88585;272;22553;-60
2023/10/12 09:58:22;;;;;;;7.80;2.20;;;;;;;19.77;49.95;100155.05;88732;278;24132;-60
2023/10/12 10:00:28;;;;;;;7.80;2.40;;;;;;;19.86;49.74;100152.89;88986;271;137278;-86
2023/10/12 10:02:33;;;;;;;7.70;2.20;;;;;;;19.96;49.71;100152.22;90526;279;23595;-85
2023/10/12 10:04:41;;;;;;;12.50;3.00;;;;;;;20.04;49.20;100144.99;90628;279;137410;-78
2023/10/12 10:06:51;;;;;;;5.10;2.50;;;;;;;20.12;48.99;100141.44;90858;272;22519;-83
2023/10/12 10:09:09;;;;;;;7.00;2.20;;;;;;;20.19;48.82;100134.33;90698;279;136023;-69
2023/10/12 10:11:12;;;;;;;8.10;2.40;;;;;;;20.28;48.81;100127.35;88602;279;22533;-76
2023/10/12 10:13:38;;;;;;;4.50;2.10;;;;;;;20.33;48.70;100128.96;88936;279;136046;-70
2023/10/12 10:15:59;;;;;;;6.20;2.70;;;;;;;20.37;48.38;100125.31;89038;272;23971;-72
2023/10/12 10:18:01;;;;;;;3.30;1.90;;;;;;;20.37;48.56;100129.27;88801;276;137374;-68
2023/10/12 10:22:41;;;;;;;11.00;3.10;;;;;;;20.37;48.58;100123.53;88420;276;22531;-73
2023/10/12 10:24:45;;;;;;;3.50;2.40;;;;;;;20.37;48.71;100117.48;88482;271;137096;-80
2023/10/12 10:26:56;;;;;;;7.90;2.60;;;;;;;20.40;48.68;100119.45;88681;279;25146;-79
2023/10/12 10:29:05;;;;;;;7.90;2.30;;;;;;;20.49;48.66;100107.65;88652;275;136433;-79
2023/10/12 10:31:11;;;;;;;8.10;2.20;;;;;;;20.54;48.49;100110.66;88692;271;25153;-78
2023/10/12 10:33:17;;;;;;;5.20;2.10;;;;;;;20.60;48.31;100107.20;88652;276;136284;-80
2023/10/12 10:35:22;;;;;;;6.70;2.40;;;;;;;20.65;48.38;100099.13;88765;276;22536;-78
2023/10/12 10:37:58;;;;;;;6.30;2.30;;;;;;;20.72;48.48;100093.42;88716;276;136177;-76
2023/10/12 10:40:07;;;;;;;36.50;5.40;;;;;;;20.81;48.00;100086.92;88689;271;25080;-80
2023/10/12 10:44:36;;;;;;;8.20;2.40;;;;;;;20.80;47.48;100087.52;87004;302;602144;-79
2023/10/12 10:46:44;;;;;;;7.00;2.40;;;;;;;20.75;47.45;100084.45;87874;286;22612;-78
2023/10/12 10:48:52;;;;;;;6.80;2.10;;;;;;;20.83;47.50;100088.23;87830;286;137080;-78
2023/10/12 10:50:57;;;;;;;3.70;2.10;;;;;;;20.85;47.44;100089.87;87877;291;22546;-77
2023/10/12 10:53:00;;;;;;;6.90;2.40;;;;;;;20.87;47.57;100088.79;87882;286;135463;-78
2023/10/12 10:55:10;;;;;;;5.10;2.00;;;;;;;20.84;47.51;100077.89;87925;290;25152;-77
2023/10/12 10:59:34;;;;;;;4.60;1.90;;;;;;;20.99;47.36;100075.91;87355;290;22555;-80
2023/10/12 11:01:36;;;;;;;6.80;1.80;;;;;;;21.07;47.39;100069.23;88231;288;135688;-79
2023/10/12 11:03:39;;;;;;;8.80;2.10;;;;;;;21.14;47.27;100064.42;88522;288;22560;-78
2023/10/12 11:05:44;;;;;;;6.70;2.10;;;;;;;21.23;47.12;100058.23;88316;284;137235;-77
2023/10/12 11:07:50;;;;;;;4.90;2.40;;;;;;;21.28;47.07;100060.64;88821;277;24131;-75
2023/10/12 11:12:03;;;;;;;4.20;2.10;;;;;;;21.38;46.87;100053.08;88633;277;22609;-77
2023/10/12 11:14:10;;;;;;;4.70;1.50;;;;;;;21.44;46.87;100055.15;88777;277;25124;-71
2023/10/12 11:16:21;;;;;;;5.40;2.10;;;;;;;21.44;46.88;100054.30;88396;283;136134;-80
2023/10/12 11:18:24;;;;;;;9.70;2.80;;;;;;;21.46;46.85;100048.95;88861;278;23711;-78
2023/10/12 11:23:03;;;;;;;5.90;2.50;;;;;;;21.50;46.68;100043.86;88330;284;22596;-75
2023/10/12 11:25:12;;;;;;;4.40;1.70;;;;;;;21.53;46.90;100043.38;88179;284;136402;-76
2023/10/12 11:27:31;;;;;;;6.20;1.90;;;;;;;21.56;46.77;100037.74;88333;277;22543;-78
2023/10/12 11:29:49;;;;;;;17.00;2.50;;;;;;;21.58;46.68;100029.44;88439;282;137465;-78
2023/10/12 11:32:11;;;;;;;6.10;2.50;;;;;;;21.58;46.61;100022.71;88177;284;22609;-79